< < Back
Terminal Aerodrome Forecast


Current Version              Previous Versions:   1  2  3  4  5  6  7  8  9  

Terminal Aerodrome Forecast

686
FTUS42 KCAE 041740
TAFCAE
TAF
KCAE 041740Z 0418/0518 27008G16KT P6SM SCT050
     FM042200 26007KT P6SM SCT080
     FM051100 28010G18KT P6SM SCT080=

Latest METAR

653
SAUS80 KWBC 050100 RRA
MTRCAE
METAR KCAE 050056Z 25003KT 10SM CLR 19/07 A2964 RMK AO2 SLP035
T01890072


USA.gov is the U.S. government's official web portal to all federal, state and local government web resources and services.